sensor_id;sensor_type;location;lat;lon;timestamp;pressure;altitude;pressure_sealevel;temperature;humidity
26697;BME280;14312;52.614;13.496;2022-08-19T00:00:18;100303.81;;;27.93;50.96
26697;BME280;14312;52.614;13.496;2022-08-19T00:03:05;100297.06;;;27.87;50.74
26697;BME280;14312;52.614;13.496;2022-08-19T00:05:52;100299.66;;;27.80;51.07
26697;BME280;14312;52.614;13.496;2022-08-19T00:08:38;100291.75;;;27.75;51.04
26697;BME280;14312;52.614;13.496;2022-08-19T00:11:24;100289.31;;;27.70;51.46
26697;BME280;14312;52.614;13.496;2022-08-19T00:14:13;100292.78;;;27.66;51.51
26697;BME280;14312;52.614;13.496;2022-08-19T00:17:00;100300.50;;;27.61;51.93
26697;BME280;14312;52.614;13.496;2022-08-19T00:19:46;100310.22;;;27.58;52.09
26697;BME280;14312;52.614;13.496;2022-08-19T00:22:32;100311.81;;;27.59;51.96
26697;BME280;14312;52.614;13.496;2022-08-19T00:25:19;100297.69;;;27.57;51.81
26697;BME280;14312;52.614;13.496;2022-08-19T00:28:04;100305.09;;;27.57;52.08
26697;BME280;14312;52.614;13.496;2022-08-19T00:30:50;100314.13;;;27.57;51.98
26697;BME280;14312;52.614;13.496;2022-08-19T00:33:37;100334.88;;;27.58;52.18
26697;BME280;14312;52.614;13.496;2022-08-19T00:36:23;100333.72;;;27.59;51.94
26697;BME280;14312;52.614;13.496;2022-08-19T00:39:10;100323.91;;;27.58;52.06
26697;BME280;14312;52.614;13.496;2022-08-19T00:41:56;100319.22;;;27.59;51.99
26697;BME280;14312;52.614;13.496;2022-08-19T00:44:43;100311.81;;;27.59;51.96
26697;BME280;14312;52.614;13.496;2022-08-19T00:47:29;100311.81;;;27.59;52.32
26697;BME280;14312;52.614;13.496;2022-08-19T00:50:17;100306.03;;;27.64;52.45
26697;BME280;14312;52.614;13.496;2022-08-19T00:53:03;100290.78;;;27.63;52.29
26697;BME280;14312;52.614;13.496;2022-08-19T00:55:51;100297.09;;;27.67;52.25
26697;BME280;14312;52.614;13.496;2022-08-19T00:58:39;100306.91;;;27.69;52.27
26697;BME280;14312;52.614;13.496;2022-08-19T01:01:25;100316.72;;;27.70;52.13
26697;BME280;14312;52.614;13.496;2022-08-19T01:04:13;100312.06;;;27.74;51.98
26697;BME280;14312;52.614;13.496;2022-08-19T01:06:59;100312.88;;;27.74;52.28
26697;BME280;14312;52.614;13.496;2022-08-19T01:09:47;100313.66;;;27.75;52.08
26697;BME280;14312;52.614;13.496;2022-08-19T01:12:33;100322.31;;;27.77;52.10
26697;BME280;14312;52.614;13.496;2022-08-19T01:15:23;100309.81;;;27.79;52.31
26697;BME280;14312;52.614;13.496;2022-08-19T01:18:13;100312.22;;;27.81;52.66
26697;BME280;14312;52.614;13.496;2022-08-19T01:21:08;100313.81;;;27.82;52.86
26697;BME280;14312;52.614;13.496;2022-08-19T01:23:54;100323.16;;;27.81;52.32
26697;BME280;14312;52.614;13.496;2022-08-19T01:26:43;100313.09;;;27.85;52.28
26697;BME280;14312;52.614;13.496;2022-08-19T01:29:29;100311.50;;;27.84;52.33
26697;BME280;14312;52.614;13.496;2022-08-19T01:32:16;100308.75;;;27.84;52.16
26697;BME280;14312;52.614;13.496;2022-08-19T01:35:03;100327.94;;;27.84;52.18
26697;BME280;14312;52.614;13.496;2022-08-19T01:38:02;100335.00;;;27.85;52.54
26697;BME280;14312;52.614;13.496;2022-08-19T01:40:52;100334.13;;;27.81;52.15
26697;BME280;14312;52.614;13.496;2022-08-19T01:43:39;100338.00;;;27.80;52.45
26697;BME280;14312;52.614;13.496;2022-08-19T01:46:25;100337.22;;;27.79;52.61
26697;BME280;14312;52.614;13.496;2022-08-19T01:49:10;100326.66;;;27.78;52.47
26697;BME280;14312;52.614;13.496;2022-08-19T01:51:56;100323.91;;;27.78;52.73
26697;BME280;14312;52.614;13.496;2022-08-19T01:54:42;100333.69;;;27.79;52.68
26697;BME280;14312;52.614;13.496;2022-08-19T01:57:28;100312.94;;;27.78;52.64
26697;BME280;14312;52.614;13.496;2022-08-19T02:00:17;100323.16;;;27.81;52.64
26697;BME280;14312;52.614;13.496;2022-08-19T02:03:03;100303.94;;;27.77;52.79
26697;BME280;14312;52.614;13.496;2022-08-19T02:05:54;100283.22;;;27.80;53.04
26697;BME280;14312;52.614;13.496;2022-08-19T02:08:40;100287.88;;;27.76;52.50
26697;BME280;14312;52.614;13.496;2022-08-19T02:11:30;100283.97;;;27.77;52.61
26697;BME280;14312;52.614;13.496;2022-08-19T02:14:17;100271.00;;;27.74;52.67
26697;BME280;14312;52.614;13.496;2022-08-19T02:17:03;100186.91;;;27.74;52.66
26697;BME280;14312;52.614;13.496;2022-08-19T02:19:49;100187.69;;;27.75;53.30
26697;BME280;14312;52.614;13.496;2022-08-19T02:22:35;100212.56;;;27.66;53.35
26697;BME280;14312;52.614;13.496;2022-08-19T02:25:21;100239.03;;;27.58;53.07
26697;BME280;14312;52.614;13.496;2022-08-19T02:28:07;100279.53;;;27.49;53.45
26697;BME280;14312;52.614;13.496;2022-08-19T02:30:53;100263.38;;;27.44;52.77
26697;BME280;14312;52.614;13.496;2022-08-19T02:33:39;100251.16;;;27.38;53.48
26697;BME280;14312;52.614;13.496;2022-08-19T02:36:25;100237.78;;;27.33;53.59
26697;BME280;14312;52.614;13.496;2022-08-19T02:39:11;100226.75;;;27.29;53.87
26697;BME280;14312;52.614;13.496;2022-08-19T02:41:57;100234.09;;;27.25;53.83
26697;BME280;14312;52.614;13.496;2022-08-19T02:44:45;100234.44;;;27.24;53.81
26697;BME280;14312;52.614;13.496;2022-08-19T02:47:30;100243.81;;;27.23;53.96
26697;BME280;14312;52.614;13.496;2022-08-19T02:50:16;100236.75;;;27.22;53.91
26697;BME280;14312;52.614;13.496;2022-08-19T02:53:03;100238.28;;;27.19;54.08
26697;BME280;14312;52.614;13.496;2022-08-19T02:55:49;100244.56;;;27.20;54.34
26697;BME280;14312;52.614;13.496;2022-08-19T02:58:36;100248.09;;;27.20;54.12
26697;BME280;14312;52.614;13.496;2022-08-19T03:01:31;100244.59;;;27.23;54.43
26697;BME280;14312;52.614;13.496;2022-08-19T03:04:17;100239.09;;;27.20;54.25
26697;BME280;14312;52.614;13.496;2022-08-19T03:07:04;100250.03;;;27.20;54.09
26697;BME280;14312;52.614;13.496;2022-08-19T03:09:50;100242.22;;;27.22;54.04
26697;BME280;14312;52.614;13.496;2022-08-19T03:12:37;100247.34;;;27.23;54.42
26697;BME280;14312;52.614;13.496;2022-08-19T03:15:24;100261.03;;;27.23;54.38
26697;BME280;14312;52.614;13.496;2022-08-19T03:18:10;100260.22;;;27.23;54.34
26697;BME280;14312;52.614;13.496;2022-08-19T03:20:56;100262.97;;;27.23;54.33
26697;BME280;14312;52.614;13.496;2022-08-19T03:23:42;100243.81;;;27.23;54.18
26697;BME280;14312;52.614;13.496;2022-08-19T03:26:28;100239.94;;;27.24;54.40
26697;BME280;14312;52.614;13.496;2022-08-19T03:29:15;100219.97;;;27.23;54.44
26697;BME280;14312;52.614;13.496;2022-08-19T03:32:04;100219.63;;;27.25;54.45
26697;BME280;14312;52.614;13.496;2022-08-19T03:34:50;100214.84;;;27.22;54.10
26697;BME280;14312;52.614;13.496;2022-08-19T03:37:36;100212.56;;;27.24;54.18
26697;BME280;14312;52.614;13.496;2022-08-19T03:40:22;100225.81;;;27.22;54.33
26697;BME280;14312;52.614;13.496;2022-08-19T03:43:08;100225.81;;;27.22;54.42
26697;BME280;14312;52.614;13.496;2022-08-19T03:46:02;100223.50;;;27.24;54.31
26697;BME280;14312;52.614;13.496;2022-08-19T03:48:52;100215.66;;;27.22;54.38
26697;BME280;14312;52.614;13.496;2022-08-19T03:51:42;100228.94;;;27.20;54.31
26697;BME280;14312;52.614;13.496;2022-08-19T03:54:28;100226.53;;;27.19;54.56
26697;BME280;14312;52.614;13.496;2022-08-19T03:57:14;100236.34;;;27.20;54.59
26697;BME280;14312;52.614;13.496;2022-08-19T04:00:00;100242.97;;;27.19;54.54
26697;BME280;14312;52.614;13.496;2022-08-19T04:02:46;100238.28;;;27.19;54.45
26697;BME280;14312;52.614;13.496;2022-08-19T04:05:32;100233.59;;;27.20;54.45
26697;BME280;14312;52.614;13.496;2022-08-19T04:08:18;100230.06;;;27.19;54.38
26697;BME280;14312;52.614;13.496;2022-08-19T04:11:08;100233.59;;;27.20;54.89
26697;BME280;14312;52.614;13.496;2022-08-19T04:13:54;100230.44;;;27.18;54.69
26697;BME280;14312;52.614;13.496;2022-08-19T04:16:41;100229.63;;;27.17;54.54
26697;BME280;14312;52.614;13.496;2022-08-19T04:19:29;100244.47;;;27.16;54.93
26697;BME280;14312;52.614;13.496;2022-08-19T04:22:16;100244.81;;;27.15;54.58
26697;BME280;14312;52.614;13.496;2022-08-19T04:25:02;100242.09;;;27.15;54.90
26697;BME280;14312;52.614;13.496;2022-08-19T04:27:48;100246.00;;;27.14;54.95
26697;BME280;14312;52.614;13.496;2022-08-19T04:30:47;100250.03;;;27.20;54.85
26697;BME280;14312;52.614;13.496;2022-08-19T04:33:33;100242.09;;;27.15;54.89
26697;BME280;14312;52.614;13.496;2022-08-19T04:36:22;100233.53;;;27.16;54.81
26697;BME280;14312;52.614;13.496;2022-08-19T04:39:14;100238.19;;;27.16;54.79
26697;BME280;14312;52.614;13.496;2022-08-19T04:42:00;100219.78;;;27.13;54.90
26697;BME280;14312;52.614;13.496;2022-08-19T04:45:11;100227.25;;;27.16;55.29
26697;BME280;14312;52.614;13.496;2022-08-19T04:47:57;100229.94;;;27.12;54.88
26697;BME280;14312;52.614;13.496;2022-08-19T04:50:43;100227.56;;;27.11;55.09
26697;BME280;14312;52.614;13.496;2022-08-19T04:53:31;100231.44;;;27.10;55.11
26697;BME280;14312;52.614;13.496;2022-08-19T04:56:18;100235.31;;;27.09;55.09
26697;BME280;14312;52.614;13.496;2022-08-19T04:59:07;100238.84;;;27.09;55.70
26697;BME280;14312;52.614;13.496;2022-08-19T05:01:54;100247.41;;;27.08;55.47
26697;BME280;14312;52.614;13.496;2022-08-19T05:04:40;100240.38;;;27.07;55.77
26697;BME280;14312;52.614;13.496;2022-08-19T05:07:26;100233.75;;;27.08;55.49
26697;BME280;14312;52.614;13.496;2022-08-19T05:10:12;100223.97;;;27.07;55.51
26697;BME280;14312;52.614;13.496;2022-08-19T05:12:58;100229.44;;;27.07;55.66
26697;BME280;14312;52.614;13.496;2022-08-19T05:15:56;100221.66;;;27.09;55.70
26697;BME280;14312;52.614;13.496;2022-08-19T05:18:43;100227.84;;;27.06;55.56
26697;BME280;14312;52.614;13.496;2022-08-19T05:21:48;100224.72;;;27.07;55.75
26697;BME280;14312;52.614;13.496;2022-08-19T05:24:52;100220.84;;;27.08;55.44
26697;BME280;14312;52.614;13.496;2022-08-19T05:27:39;100208.41;;;27.11;55.69
26697;BME280;14312;52.614;13.496;2022-08-19T05:30:25;100210.00;;;27.12;55.52
26697;BME280;14312;52.614;13.496;2022-08-19T05:33:11;100203.78;;;27.15;55.56
26697;BME280;14312;52.614;13.496;2022-08-19T05:35:57;100199.09;;;27.15;55.98
26697;BME280;14312;52.614;13.496;2022-08-19T05:38:44;100192.13;;;27.18;56.12
26697;BME280;14312;52.614;13.496;2022-08-19T05:41:30;100197.59;;;27.18;56.07
26697;BME280;14312;52.614;13.496;2022-08-19T05:44:16;100202.34;;;27.21;56.17
26697;BME280;14312;52.614;13.496;2022-08-19T05:47:04;100193.41;;;27.24;55.95
26697;BME280;14312;52.614;13.496;2022-08-19T05:49:51;100198.88;;;27.24;56.10
26697;BME280;14312;52.614;13.496;2022-08-19T05:52:37;100209.53;;;27.29;56.20
26697;BME280;14312;52.614;13.496;2022-08-19T05:55:23;100212.00;;;27.34;56.20
26697;BME280;14312;52.614;13.496;2022-08-19T05:58:09;100213.56;;;27.35;56.02
26697;BME280;14312;52.614;13.496;2022-08-19T06:00:55;100225.38;;;27.39;56.01
26697;BME280;14312;52.614;13.496;2022-08-19T06:03:41;100212.91;;;27.42;56.01
26697;BME280;14312;52.614;13.496;2022-08-19T06:06:27;100210.56;;;27.44;56.22
26697;BME280;14312;52.614;13.496;2022-08-19T06:09:14;100213.75;;;27.46;56.24
26697;BME280;14312;52.614;13.496;2022-08-19T06:12:00;100216.13;;;27.47;56.26
26697;BME280;14312;52.614;13.496;2022-08-19T06:14:46;100215.78;;;27.49;56.33
26697;BME280;14312;52.614;13.496;2022-08-19T06:17:32;100215.84;;;27.52;56.55
26697;BME280;14312;52.614;13.496;2022-08-19T06:20:20;100223.34;;;27.55;56.40
26697;BME280;14312;52.614;13.496;2022-08-19T06:23:06;100222.19;;;27.56;56.18
26697;BME280;14312;52.614;13.496;2022-08-19T06:25:52;100220.31;;;27.60;56.49
26697;BME280;14312;52.614;13.496;2022-08-19T06:28:38;100222.31;;;27.63;56.13
26697;BME280;14312;52.614;13.496;2022-08-19T06:31:29;100225.13;;;27.67;56.54
26697;BME280;14312;52.614;13.496;2022-08-19T06:34:19;100222.00;;;27.69;56.42
26697;BME280;14312;52.614;13.496;2022-08-19T06:37:05;100216.59;;;27.72;56.38
26697;BME280;14312;52.614;13.496;2022-08-19T06:39:51;100212.78;;;27.77;56.17
26697;BME280;14312;52.614;13.496;2022-08-19T06:42:37;100220.66;;;27.82;56.29
26697;BME280;14312;52.614;13.496;2022-08-19T06:45:24;100218.78;;;27.86;56.16
26697;BME280;14312;52.614;13.496;2022-08-19T06:48:09;100221.22;;;27.91;56.01
26697;BME280;14312;52.614;13.496;2022-08-19T06:50:55;100224.78;;;27.95;56.12
26697;BME280;14312;52.614;13.496;2022-08-19T06:53:41;100225.66;;;27.99;56.07
26697;BME280;14312;52.614;13.496;2022-08-19T06:56:31;100233.56;;;28.04;56.05
26697;BME280;14312;52.614;13.496;2022-08-19T06:59:22;100243.06;;;28.10;55.91
26697;BME280;14312;52.614;13.496;2022-08-19T07:02:09;100244.63;;;28.11;55.86
26697;BME280;14312;52.614;13.496;2022-08-19T07:04:55;100249.38;;;28.14;55.90
26697;BME280;14312;52.614;13.496;2022-08-19T07:07:43;100263.97;;;28.18;56.01
26697;BME280;14312;52.614;13.496;2022-08-19T07:10:29;100262.81;;;28.19;55.94
26697;BME280;14312;52.614;13.496;2022-08-19T07:13:17;100262.50;;;28.24;55.83
26697;BME280;14312;52.614;13.496;2022-08-19T07:16:07;100265.34;;;28.31;55.93
26697;BME280;14312;52.614;13.496;2022-08-19T07:18:53;100273.56;;;28.31;55.78
26697;BME280;14312;52.614;13.496;2022-08-19T07:21:39;100275.59;;;28.34;55.70
26697;BME280;14312;52.614;13.496;2022-08-19T07:24:26;100290.13;;;28.38;55.66
26697;BME280;14312;52.614;13.496;2022-08-19T07:27:13;100289.41;;;28.41;55.66
26697;BME280;14312;52.614;13.496;2022-08-19T07:29:59;100278.84;;;28.43;55.75
26697;BME280;14312;52.614;13.496;2022-08-19T07:32:45;100278.09;;;28.47;55.53
26697;BME280;14312;52.614;13.496;2022-08-19T07:35:31;100271.16;;;28.53;55.56
26697;BME280;14312;52.614;13.496;2022-08-19T07:38:17;100267.25;;;28.54;55.78
26697;BME280;14312;52.614;13.496;2022-08-19T07:41:03;100280.63;;;28.59;55.53
26697;BME280;14312;52.614;13.496;2022-08-19T07:43:50;100285.38;;;28.62;55.56
26697;BME280;14312;52.614;13.496;2022-08-19T07:46:39;100279.56;;;28.67;55.25
26697;BME280;14312;52.614;13.496;2022-08-19T07:49:25;100282.31;;;28.67;55.28
26697;BME280;14312;52.614;13.496;2022-08-19T07:52:11;100278.41;;;28.68;55.13
26697;BME280;14312;52.614;13.496;2022-08-19T07:54:57;100286.69;;;28.71;55.24
26697;BME280;14312;52.614;13.496;2022-08-19T07:57:45;100291.38;;;28.71;55.14
26697;BME280;14312;52.614;13.496;2022-08-19T08:00:31;100294.91;;;28.71;55.22
26697;BME280;14312;52.614;13.496;2022-08-19T08:03:19;100292.25;;;28.75;55.07
26697;BME280;14312;52.614;13.496;2022-08-19T08:06:05;100294.19;;;28.74;55.15
26697;BME280;14312;52.614;13.496;2022-08-19T08:09:11;100295.00;;;28.75;55.31
26697;BME280;14312;52.614;13.496;2022-08-19T08:12:00;100295.84;;;28.79;55.10
26697;BME280;14312;52.614;13.496;2022-08-19T08:14:49;100297.41;;;28.80;55.38
26697;BME280;14312;52.614;13.496;2022-08-19T08:17:35;100301.31;;;28.79;55.26
26697;BME280;14312;52.614;13.496;2022-08-19T08:20:22;100306.06;;;28.82;55.29
26697;BME280;14312;52.614;13.496;2022-08-19T08:23:08;100314.75;;;28.84;55.33
26697;BME280;14312;52.614;13.496;2022-08-19T08:26:10;100315.53;;;28.85;55.05
26697;BME280;14312;52.614;13.496;2022-08-19T08:28:56;100320.63;;;28.86;55.04
26697;BME280;14312;52.614;13.496;2022-08-19T08:31:43;100328.13;;;28.89;55.01
26697;BME280;14312;52.614;13.496;2022-08-19T08:34:29;100323.38;;;28.86;54.97
26697;BME280;14312;52.614;13.496;2022-08-19T08:37:15;100341.41;;;28.87;55.22
26697;BME280;14312;52.614;13.496;2022-08-19T08:43:20;100338.34;;;28.92;55.14
26697;BME280;14312;52.614;13.496;2022-08-19T08:46:13;100336.03;;;28.94;55.26
26697;BME280;14312;52.614;13.496;2022-08-19T08:52:22;100340.81;;;29.01;55.36
26697;BME280;14312;52.614;13.496;2022-08-19T08:55:16;100346.38;;;29.04;55.24
26697;BME280;14312;52.614;13.496;2022-08-19T08:58:06;100336.22;;;29.08;55.33
26697;BME280;14312;52.614;13.496;2022-08-19T09:00:52;100329.56;;;29.09;55.76
26697;BME280;14312;52.614;13.496;2022-08-19T09:03:39;100333.22;;;29.17;55.34
26697;BME280;14312;52.614;13.496;2022-08-19T09:06:49;100333.31;;;29.28;54.98
26697;BME280;14312;52.614;13.496;2022-08-19T09:09:47;100336.94;;;29.32;55.29
26697;BME280;14312;52.614;13.496;2022-08-19T09:13:13;100335.47;;;29.38;55.20
26697;BME280;14312;52.614;13.496;2022-08-19T09:16:12;100329.63;;;29.43;55.03
26697;BME280;14312;52.614;13.496;2022-08-19T09:19:05;100325.78;;;29.47;55.31
26697;BME280;14312;52.614;13.496;2022-08-19T09:21:52;100319.50;;;29.47;54.70
26697;BME280;14312;52.614;13.496;2022-08-19T09:24:37;100320.31;;;29.51;54.61
26697;BME280;14312;52.614;13.496;2022-08-19T09:27:24;100325.78;;;29.51;54.81
26697;BME280;14312;52.614;13.496;2022-08-19T09:30:15;100319.56;;;29.54;54.81
26697;BME280;14312;52.614;13.496;2022-08-19T09:33:01;100311.63;;;29.49;55.21
26697;BME280;14312;52.614;13.496;2022-08-19T09:35:47;100307.78;;;29.53;54.93
26697;BME280;14312;52.614;13.496;2022-08-19T09:38:33;100306.22;;;29.56;55.04
26697;BME280;14312;52.614;13.496;2022-08-19T09:41:21;100305.13;;;29.64;55.06
26697;BME280;14312;52.614;13.496;2022-08-19T09:44:07;100313.44;;;29.68;55.23
26697;BME280;14312;52.614;13.496;2022-08-19T09:46:53;100311.13;;;29.73;55.30
26697;BME280;14312;52.614;13.496;2022-08-19T09:49:40;100304.97;;;29.83;54.76
26697;BME280;14312;52.614;13.496;2022-08-19T09:52:25;100316.03;;;29.90;54.54
26697;BME280;14312;52.614;13.496;2022-08-19T09:55:12;100310.56;;;29.94;54.65
26697;BME280;14312;52.614;13.496;2022-08-19T09:58:00;100302.03;;;30.03;54.47
26697;BME280;14312;52.614;13.496;2022-08-19T10:00:46;100306.75;;;30.06;54.09
26697;BME280;14312;52.614;13.496;2022-08-19T10:03:33;100307.59;;;30.13;53.99
26697;BME280;14312;52.614;13.496;2022-08-19T10:06:21;100309.63;;;30.20;53.81
26697;BME280;14312;52.614;13.496;2022-08-19T10:09:09;100312.03;;;30.25;53.91
26697;BME280;14312;52.614;13.496;2022-08-19T10:11:55;100311.66;;;30.26;53.44
26697;BME280;14312;52.614;13.496;2022-08-19T10:14:41;100310.94;;;30.33;53.16
26697;BME280;14312;52.614;13.496;2022-08-19T10:17:28;100306.22;;;30.37;53.16
26697;BME280;14312;52.614;13.496;2022-08-19T10:20:16;100305.47;;;30.40;53.38
26697;BME280;14312;52.614;13.496;2022-08-19T10:23:02;100301.56;;;30.45;53.08
26697;BME280;14312;52.614;13.496;2022-08-19T10:25:49;100307.88;;;30.45;52.97
26697;BME280;14312;52.614;13.496;2022-08-19T10:28:35;100298.50;;;30.50;53.08
26697;BME280;14312;52.614;13.496;2022-08-19T10:31:28;100305.97;;;30.53;52.92
26697;BME280;14312;52.614;13.496;2022-08-19T10:34:14;100294.56;;;30.51;52.89
26697;BME280;14312;52.614;13.496;2022-08-19T10:37:00;100294.53;;;30.47;52.62
26697;BME280;14312;52.614;13.496;2022-08-19T10:39:46;100293.78;;;30.50;52.26
26697;BME280;14312;52.614;13.496;2022-08-19T10:42:36;100293.03;;;30.53;52.29
26697;BME280;14312;52.614;13.496;2022-08-19T10:45:23;100288.22;;;30.47;52.60
26697;BME280;14312;52.614;13.496;2022-08-19T10:48:11;100289.03;;;30.47;52.69
26697;BME280;14312;52.614;13.496;2022-08-19T10:50:58;100287.53;;;30.53;52.30
26697;BME280;14312;52.614;13.496;2022-08-19T10:54:03;100286.75;;;30.56;52.32
26697;BME280;14312;52.614;13.496;2022-08-19T10:56:49;100280.47;;;30.59;52.13
26697;BME280;14312;52.614;13.496;2022-08-19T10:59:38;100283.66;;;30.65;52.23
26697;BME280;14312;52.614;13.496;2022-08-19T11:02:26;100279.75;;;30.69;52.46
26697;BME280;14312;52.614;13.496;2022-08-19T11:05:13;100286.06;;;30.73;52.21
26697;BME280;14312;52.614;13.496;2022-08-19T11:07:59;100288.44;;;30.79;52.17
26697;BME280;14312;52.614;13.496;2022-08-19T11:10:45;100285.31;;;30.84;51.73
26697;BME280;14312;52.614;13.496;2022-08-19T11:13:34;100289.28;;;30.86;51.84
26697;BME280;14312;52.614;13.496;2022-08-19T11:16:24;100298.75;;;30.89;51.78
26697;BME280;14312;52.614;13.496;2022-08-19T11:19:11;100301.88;;;30.87;51.54
26697;BME280;14312;52.614;13.496;2022-08-19T11:21:59;100308.16;;;30.88;51.76
26697;BME280;14312;52.614;13.496;2022-08-19T11:24:46;100303.03;;;30.86;51.12
26697;BME280;14312;52.614;13.496;2022-08-19T11:27:32;100308.91;;;30.85;51.39
26697;BME280;14312;52.614;13.496;2022-08-19T11:30:19;100309.72;;;30.82;51.22
26697;BME280;14312;52.614;13.496;2022-08-19T11:33:05;100308.13;;;30.81;51.48
26697;BME280;14312;52.614;13.496;2022-08-19T11:35:50;100310.06;;;30.77;51.51
26697;BME280;14312;52.614;13.496;2022-08-19T11:38:36;100317.50;;;30.72;51.55
26697;BME280;14312;52.614;13.496;2022-08-19T11:41:23;100318.25;;;30.66;51.04
26697;BME280;14312;52.614;13.496;2022-08-19T11:44:10;100322.97;;;30.65;51.27
26697;BME280;14312;52.614;13.496;2022-08-19T11:46:56;100317.41;;;30.58;51.09
26697;BME280;14312;52.614;13.496;2022-08-19T11:49:42;100317.00;;;30.53;51.43
26697;BME280;14312;52.614;13.496;2022-08-19T11:52:27;100320.84;;;30.48;51.54
26697;BME280;14312;52.614;13.496;2022-08-19T11:55:15;100325.94;;;30.46;51.08
26697;BME280;14312;52.614;13.496;2022-08-19T11:58:01;100313.38;;;30.45;51.32
26697;BME280;14312;52.614;13.496;2022-08-19T12:00:47;100327.06;;;30.42;50.92
26697;BME280;14312;52.614;13.496;2022-08-19T12:03:33;100340.81;;;30.38;51.39
26697;BME280;14312;52.614;13.496;2022-08-19T12:06:23;100350.66;;;30.39;51.16
26697;BME280;14312;52.614;13.496;2022-08-19T12:09:11;100348.66;;;30.36;51.21
26697;BME280;14312;52.614;13.496;2022-08-19T12:11:57;100339.16;;;30.30;51.18
26697;BME280;14312;52.614;13.496;2022-08-19T12:14:42;100339.16;;;30.30;51.49
26697;BME280;14312;52.614;13.496;2022-08-19T12:17:28;100340.75;;;30.31;51.45
26697;BME280;14312;52.614;13.496;2022-08-19T12:20:16;100332.09;;;30.29;51.23
26697;BME280;14312;52.614;13.496;2022-08-19T12:23:03;100336.84;;;30.32;51.43
26697;BME280;14312;52.614;13.496;2022-08-19T12:25:49;100350.22;;;30.33;51.63
26697;BME280;14312;52.614;13.496;2022-08-19T12:28:37;100356.47;;;30.34;51.53
26697;BME280;14312;52.614;13.496;2022-08-19T12:31:24;100349.47;;;30.40;51.43
26697;BME280;14312;52.614;13.496;2022-08-19T12:34:10;100358.13;;;30.42;51.73
26697;BME280;14312;52.614;13.496;2022-08-19T12:36:57;100351.53;;;30.50;51.69
26697;BME280;14312;52.614;13.496;2022-08-19T12:39:43;100355.13;;;30.54;51.66
26697;BME280;14312;52.614;13.496;2022-08-19T12:42:29;100353.22;;;30.62;51.50
26697;BME280;14312;52.614;13.496;2022-08-19T12:45:15;100355.22;;;30.68;51.39
26697;BME280;14312;52.614;13.496;2022-08-19T12:48:02;100356.03;;;30.72;51.11
26697;BME280;14312;52.614;13.496;2022-08-19T12:50:48;100354.91;;;30.81;50.79
26697;BME280;14312;52.614;13.496;2022-08-19T12:53:34;100359.25;;;30.82;51.05
26697;BME280;14312;52.614;13.496;2022-08-19T12:56:21;100351.41;;;30.91;50.79
26697;BME280;14312;52.614;13.496;2022-08-19T12:59:06;100351.44;;;30.94;50.31
26697;BME280;14312;52.614;13.496;2022-08-19T13:01:53;100361.25;;;30.92;49.98
26697;BME280;14312;52.614;13.496;2022-08-19T13:04:39;100355.41;;;30.97;50.38
26697;BME280;14312;52.614;13.496;2022-08-19T13:07:26;100343.59;;;30.96;50.41
26697;BME280;14312;52.614;13.496;2022-08-19T13:10:14;100342.03;;;30.99;49.93
26697;BME280;14312;52.614;13.496;2022-08-19T13:13:03;100332.59;;;31.00;50.19
26697;BME280;14312;52.614;13.496;2022-08-19T13:15:51;100339.69;;;31.01;50.51
26697;BME280;14312;52.614;13.496;2022-08-19T13:18:37;100343.69;;;31.07;50.67
26697;BME280;14312;52.614;13.496;2022-08-19T13:21:26;100347.28;;;31.18;50.78
26697;BME280;14312;52.614;13.496;2022-08-19T13:24:13;100345.34;;;31.19;50.22
26697;BME280;14312;52.614;13.496;2022-08-19T13:27:00;100346.16;;;31.26;49.81
26697;BME280;14312;52.614;13.496;2022-08-19T13:29:46;100349.31;;;31.35;49.71
26697;BME280;14312;52.614;13.496;2022-08-19T13:32:50;100347.75;;;31.41;49.57
26697;BME280;14312;52.614;13.496;2022-08-19T13:35:59;100346.25;;;31.55;49.49
26697;BME280;14312;52.614;13.496;2022-08-19T13:38:46;100348.22;;;31.54;49.42
26697;BME280;14312;52.614;13.496;2022-08-19T13:41:31;100347.50;;;31.61;49.23
26697;BME280;14312;52.614;13.496;2022-08-19T13:44:19;100342.75;;;31.65;48.88
26697;BME280;14312;52.614;13.496;2022-08-19T13:47:05;100344.75;;;31.68;48.66
26697;BME280;14312;52.614;13.496;2022-08-19T13:49:52;100350.28;;;31.75;48.92
26697;BME280;14312;52.614;13.496;2022-08-19T13:52:39;100347.13;;;31.80;49.26
26697;BME280;14312;52.614;13.496;2022-08-19T13:55:25;100344.41;;;31.87;49.07
26697;BME280;14312;52.614;13.496;2022-08-19T13:58:13;100344.38;;;31.90;48.53
26697;BME280;14312;52.614;13.496;2022-08-19T14:00:59;100344.81;;;32.00;48.77
26697;BME280;14312;52.614;13.496;2022-08-19T14:03:44;100339.69;;;32.05;48.94
26697;BME280;14312;52.614;13.496;2022-08-19T14:06:30;100342.44;;;32.12;48.28
26697;BME280;14312;52.614;13.496;2022-08-19T14:09:16;100344.06;;;32.20;47.48
26697;BME280;14312;52.614;13.496;2022-08-19T14:12:02;100340.13;;;32.28;47.96
26697;BME280;14312;52.614;13.496;2022-08-19T14:14:48;100327.13;;;32.33;47.74
26697;BME280;14312;52.614;13.496;2022-08-19T14:17:41;100334.59;;;32.43;47.37
26697;BME280;14312;52.614;13.496;2022-08-19T14:20:27;100330.25;;;32.42;47.42
26697;BME280;14312;52.614;13.496;2022-08-19T14:23:12;100336.97;;;32.48;47.34
26697;BME280;14312;52.614;13.496;2022-08-19T14:26:11;100337.34;;;32.57;47.00
26697;BME280;14312;52.614;13.496;2022-08-19T14:28:58;100328.69;;;32.51;46.40
26697;BME280;14312;52.614;13.496;2022-08-19T14:31:44;100335.38;;;32.50;46.64